sensor_id;sensor_type;location;lat;lon;timestamp;P1;durP1;ratioP1;P2;durP2;ratioP2
24096;SDS011;12275;48.550;12.132;2023-07-20T00:01:23;1483.05;;;999.90;;
24096;SDS011;12275;48.550;12.132;2023-07-20T00:03:49;1492.13;;;999.90;;
24096;SDS011;12275;48.550;12.132;2023-07-20T00:06:20;1494.95;;;999.90;;
24096;SDS011;12275;48.550;12.132;2023-07-20T00:08:46;1500.68;;;999.90;;
24096;SDS011;12275;48.550;12.132;2023-07-20T00:11:12;1477.63;;;999.90;;
24096;SDS011;12275;48.550;12.132;2023-07-20T00:13:38;1494.30;;;999.90;;
24096;SDS011;12275;48.550;12.132;2023-07-20T00:16:05;1500.03;;;999.90;;
24096;SDS011;12275;48.550;12.132;2023-07-20T00:18:31;1513.20;;;999.90;;
24096;SDS011;12275;48.550;12.132;2023-07-20T00:20:57;1539.45;;;999.90;;
24096;SDS011;12275;48.550;12.132;2023-07-20T00:23:24;1553.43;;;999.90;;
24096;SDS011;12275;48.550;12.132;2023-07-20T00:25:51;1544.13;;;999.90;;
24096;SDS011;12275;48.550;12.132;2023-07-20T00:28:17;1556.70;;;999.90;;
24096;SDS011;12275;48.550;12.132;2023-07-20T00:30:43;1554.15;;;999.90;;
24096;SDS011;12275;48.550;12.132;2023-07-20T00:33:10;1559.30;;;999.90;;
24096;SDS011;12275;48.550;12.132;2023-07-20T00:35:37;1553.30;;;999.90;;
24096;SDS011;12275;48.550;12.132;2023-07-20T00:38:03;1532.47;;;999.90;;
24096;SDS011;12275;48.550;12.132;2023-07-20T00:40:39;1544.32;;;999.90;;
24096;SDS011;12275;48.550;12.132;2023-07-20T00:43:05;1554.45;;;999.90;;
24096;SDS011;12275;48.550;12.132;2023-07-20T00:45:31;1552.88;;;999.90;;
24096;SDS011;12275;48.550;12.132;2023-07-20T00:47:58;1548.60;;;999.90;;
24096;SDS011;12275;48.550;12.132;2023-07-20T00:50:24;1546.95;;;999.90;;
24096;SDS011;12275;48.550;12.132;2023-07-20T00:52:51;1555.00;;;999.90;;
24096;SDS011;12275;48.550;12.132;2023-07-20T00:55:18;1561.18;;;999.90;;
24096;SDS011;12275;48.550;12.132;2023-07-20T00:57:44;1553.00;;;999.90;;
24096;SDS011;12275;48.550;12.132;2023-07-20T01:00:10;1551.38;;;999.90;;
24096;SDS011;12275;48.550;12.132;2023-07-20T01:02:36;1556.00;;;999.90;;
24096;SDS011;12275;48.550;12.132;2023-07-20T01:05:02;1548.45;;;999.90;;
24096;SDS011;12275;48.550;12.132;2023-07-20T01:07:36;1533.75;;;999.90;;
24096;SDS011;12275;48.550;12.132;2023-07-20T01:10:11;1528.53;;;999.90;;
24096;SDS011;12275;48.550;12.132;2023-07-20T01:12:40;1531.03;;;999.90;;
24096;SDS011;12275;48.550;12.132;2023-07-20T01:15:07;1555.60;;;999.90;;
24096;SDS011;12275;48.550;12.132;2023-07-20T01:17:34;1557.47;;;999.90;;
24096;SDS011;12275;48.550;12.132;2023-07-20T01:20:00;1558.50;;;999.90;;
24096;SDS011;12275;48.550;12.132;2023-07-20T01:30:32;1542.07;;;999.90;;
24096;SDS011;12275;48.550;12.132;2023-07-20T01:33:00;1524.55;;;999.90;;
24096;SDS011;12275;48.550;12.132;2023-07-20T01:35:28;1501.18;;;999.90;;
24096;SDS011;12275;48.550;12.132;2023-07-20T01:37:54;1498.43;;;999.90;;
24096;SDS011;12275;48.550;12.132;2023-07-20T01:40:22;1510.55;;;999.90;;
24096;SDS011;12275;48.550;12.132;2023-07-20T01:42:50;1517.40;;;999.90;;
24096;SDS011;12275;48.550;12.132;2023-07-20T01:45:17;1471.00;;;999.90;;
24096;SDS011;12275;48.550;12.132;2023-07-20T01:47:43;1491.70;;;999.90;;
24096;SDS011;12275;48.550;12.132;2023-07-20T01:50:09;1476.47;;;999.90;;
24096;SDS011;12275;48.550;12.132;2023-07-20T01:52:35;1477.33;;;999.90;;
24096;SDS011;12275;48.550;12.132;2023-07-20T01:55:01;1475.72;;;999.90;;
24096;SDS011;12275;48.550;12.132;2023-07-20T01:57:27;1475.32;;;999.90;;
24096;SDS011;12275;48.550;12.132;2023-07-20T01:59:53;1484.15;;;999.90;;
24096;SDS011;12275;48.550;12.132;2023-07-20T02:02:19;1454.10;;;999.90;;
24096;SDS011;12275;48.550;12.132;2023-07-20T02:04:45;1446.78;;;999.90;;
24096;SDS011;12275;48.550;12.132;2023-07-20T02:07:11;1474.93;;;999.90;;
24096;SDS011;12275;48.550;12.132;2023-07-20T02:09:37;1443.47;;;999.90;;
24096;SDS011;12275;48.550;12.132;2023-07-20T02:12:03;1469.30;;;999.90;;
24096;SDS011;12275;48.550;12.132;2023-07-20T02:14:29;1461.85;;;999.90;;
24096;SDS011;12275;48.550;12.132;2023-07-20T02:16:55;1471.90;;;999.90;;
24096;SDS011;12275;48.550;12.132;2023-07-20T02:19:24;1465.23;;;999.90;;
24096;SDS011;12275;48.550;12.132;2023-07-20T02:21:51;1464.40;;;999.90;;
24096;SDS011;12275;48.550;12.132;2023-07-20T02:24:18;1478.67;;;999.90;;
24096;SDS011;12275;48.550;12.132;2023-07-20T02:26:44;1495.20;;;999.90;;
24096;SDS011;12275;48.550;12.132;2023-07-20T02:29:10;1502.45;;;999.90;;
24096;SDS011;12275;48.550;12.132;2023-07-20T02:31:39;1514.43;;;999.90;;
24096;SDS011;12275;48.550;12.132;2023-07-20T02:34:05;1492.80;;;999.90;;
24096;SDS011;12275;48.550;12.132;2023-07-20T02:36:31;1468.32;;;999.90;;
24096;SDS011;12275;48.550;12.132;2023-07-20T02:38:58;1472.38;;;999.90;;
24096;SDS011;12275;48.550;12.132;2023-07-20T02:41:24;1465.27;;;999.90;;
24096;SDS011;12275;48.550;12.132;2023-07-20T02:43:50;1499.67;;;999.90;;
24096;SDS011;12275;48.550;12.132;2023-07-20T02:46:16;1540.85;;;999.90;;
24096;SDS011;12275;48.550;12.132;2023-07-20T02:48:42;1513.97;;;999.90;;
24096;SDS011;12275;48.550;12.132;2023-07-20T02:51:08;1514.20;;;999.90;;
24096;SDS011;12275;48.550;12.132;2023-07-20T02:53:34;1543.33;;;999.90;;
24096;SDS011;12275;48.550;12.132;2023-07-20T02:56:01;1571.15;;;999.90;;
24096;SDS011;12275;48.550;12.132;2023-07-20T02:58:27;1574.72;;;999.90;;
24096;SDS011;12275;48.550;12.132;2023-07-20T03:00:52;1558.23;;;999.90;;
24096;SDS011;12275;48.550;12.132;2023-07-20T03:03:19;1557.07;;;999.90;;
24096;SDS011;12275;48.550;12.132;2023-07-20T03:05:45;1554.22;;;999.90;;
24096;SDS011;12275;48.550;12.132;2023-07-20T03:08:11;1558.90;;;999.90;;
24096;SDS011;12275;48.550;12.132;2023-07-20T03:10:38;1511.20;;;999.90;;
24096;SDS011;12275;48.550;12.132;2023-07-20T03:13:05;1507.22;;;999.90;;
24096;SDS011;12275;48.550;12.132;2023-07-20T03:15:31;1515.97;;;999.90;;
24096;SDS011;12275;48.550;12.132;2023-07-20T03:17:57;1528.85;;;999.90;;
24096;SDS011;12275;48.550;12.132;2023-07-20T03:20:24;1535.13;;;999.90;;
24096;SDS011;12275;48.550;12.132;2023-07-20T03:22:50;1542.15;;;999.90;;
24096;SDS011;12275;48.550;12.132;2023-07-20T03:25:16;1553.20;;;999.90;;
24096;SDS011;12275;48.550;12.132;2023-07-20T03:27:42;1537.45;;;999.90;;
24096;SDS011;12275;48.550;12.132;2023-07-20T03:30:08;1536.95;;;999.90;;
24096;SDS011;12275;48.550;12.132;2023-07-20T03:32:36;1551.35;;;999.90;;
24096;SDS011;12275;48.550;12.132;2023-07-20T03:35:02;1543.20;;;999.90;;
24096;SDS011;12275;48.550;12.132;2023-07-20T03:37:28;1536.07;;;999.90;;
24096;SDS011;12275;48.550;12.132;2023-07-20T03:39:54;1537.32;;;999.90;;
24096;SDS011;12275;48.550;12.132;2023-07-20T03:42:20;1511.25;;;999.90;;
24096;SDS011;12275;48.550;12.132;2023-07-20T03:44:46;1531.70;;;999.90;;
24096;SDS011;12275;48.550;12.132;2023-07-20T03:47:12;1531.63;;;999.90;;
24096;SDS011;12275;48.550;12.132;2023-07-20T03:49:38;1531.45;;;999.90;;
24096;SDS011;12275;48.550;12.132;2023-07-20T03:52:04;1522.50;;;999.90;;
24096;SDS011;12275;48.550;12.132;2023-07-20T03:54:30;1513.33;;;999.90;;
24096;SDS011;12275;48.550;12.132;2023-07-20T03:56:56;1534.45;;;999.90;;
24096;SDS011;12275;48.550;12.132;2023-07-20T03:59:23;1511.10;;;999.90;;
24096;SDS011;12275;48.550;12.132;2023-07-20T04:01:49;1529.90;;;999.90;;
24096;SDS011;12275;48.550;12.132;2023-07-20T04:04:15;1532.82;;;999.90;;
24096;SDS011;12275;48.550;12.132;2023-07-20T04:06:42;1510.60;;;999.90;;
24096;SDS011;12275;48.550;12.132;2023-07-20T04:09:11;1527.43;;;999.90;;
24096;SDS011;12275;48.550;12.132;2023-07-20T04:11:37;1527.53;;;999.90;;
24096;SDS011;12275;48.550;12.132;2023-07-20T04:14:03;1531.80;;;999.90;;
24096;SDS011;12275;48.550;12.132;2023-07-20T04:16:29;1588.00;;;999.90;;
24096;SDS011;12275;48.550;12.132;2023-07-20T04:18:56;1618.82;;;999.90;;
24096;SDS011;12275;48.550;12.132;2023-07-20T04:21:21;1612.23;;;999.90;;
24096;SDS011;12275;48.550;12.132;2023-07-20T04:23:49;1613.73;;;999.90;;
24096;SDS011;12275;48.550;12.132;2023-07-20T04:26:18;1630.13;;;999.90;;
24096;SDS011;12275;48.550;12.132;2023-07-20T04:28:58;1641.40;;;999.90;;
24096;SDS011;12275;48.550;12.132;2023-07-20T04:31:32;1644.18;;;999.90;;
24096;SDS011;12275;48.550;12.132;2023-07-20T04:33:59;1633.38;;;999.90;;
24096;SDS011;12275;48.550;12.132;2023-07-20T04:36:25;1654.28;;;999.90;;
24096;SDS011;12275;48.550;12.132;2023-07-20T04:38:51;1649.75;;;999.90;;
24096;SDS011;12275;48.550;12.132;2023-07-20T04:41:17;1616.40;;;999.90;;
24096;SDS011;12275;48.550;12.132;2023-07-20T04:43:43;1619.07;;;999.90;;
24096;SDS011;12275;48.550;12.132;2023-07-20T04:46:10;1624.53;;;999.90;;
24096;SDS011;12275;48.550;12.132;2023-07-20T04:48:36;1609.45;;;999.90;;
24096;SDS011;12275;48.550;12.132;2023-07-20T04:51:02;1610.80;;;999.90;;
24096;SDS011;12275;48.550;12.132;2023-07-20T04:53:28;1592.27;;;999.90;;
24096;SDS011;12275;48.550;12.132;2023-07-20T04:55:56;1598.80;;;999.90;;
24096;SDS011;12275;48.550;12.132;2023-07-20T04:58:22;1613.67;;;999.90;;
24096;SDS011;12275;48.550;12.132;2023-07-20T05:00:48;1596.07;;;999.90;;
24096;SDS011;12275;48.550;12.132;2023-07-20T05:03:14;1610.50;;;999.90;;
24096;SDS011;12275;48.550;12.132;2023-07-20T05:05:40;1581.60;;;999.90;;
24096;SDS011;12275;48.550;12.132;2023-07-20T05:08:06;1561.38;;;999.90;;
24096;SDS011;12275;48.550;12.132;2023-07-20T05:10:32;1590.78;;;999.90;;
24096;SDS011;12275;48.550;12.132;2023-07-20T05:12:59;1591.05;;;999.90;;
24096;SDS011;12275;48.550;12.132;2023-07-20T05:15:25;1598.20;;;999.90;;
24096;SDS011;12275;48.550;12.132;2023-07-20T05:17:51;1602.97;;;999.90;;
24096;SDS011;12275;48.550;12.132;2023-07-20T05:20:17;1591.63;;;999.90;;
24096;SDS011;12275;48.550;12.132;2023-07-20T05:22:44;1599.00;;;999.90;;
24096;SDS011;12275;48.550;12.132;2023-07-20T05:25:10;1577.00;;;999.90;;
24096;SDS011;12275;48.550;12.132;2023-07-20T05:27:36;1593.20;;;999.90;;
24096;SDS011;12275;48.550;12.132;2023-07-20T05:30:03;1607.10;;;999.90;;
24096;SDS011;12275;48.550;12.132;2023-07-20T05:32:29;1601.70;;;999.90;;
24096;SDS011;12275;48.550;12.132;2023-07-20T05:34:55;1559.45;;;999.90;;
24096;SDS011;12275;48.550;12.132;2023-07-20T05:37:21;1576.78;;;999.90;;
24096;SDS011;12275;48.550;12.132;2023-07-20T05:39:47;1589.10;;;999.90;;
24096;SDS011;12275;48.550;12.132;2023-07-20T05:42:13;1587.53;;;999.90;;
24096;SDS011;12275;48.550;12.132;2023-07-20T05:44:40;1598.25;;;999.90;;
24096;SDS011;12275;48.550;12.132;2023-07-20T05:47:06;1555.15;;;999.90;;
24096;SDS011;12275;48.550;12.132;2023-07-20T05:49:32;1600.88;;;999.90;;
24096;SDS011;12275;48.550;12.132;2023-07-20T05:51:58;1602.47;;;999.90;;
24096;SDS011;12275;48.550;12.132;2023-07-20T05:54:25;1553.97;;;999.90;;
24096;SDS011;12275;48.550;12.132;2023-07-20T05:56:51;1573.60;;;999.90;;
24096;SDS011;12275;48.550;12.132;2023-07-20T05:59:18;1556.50;;;999.90;;
24096;SDS011;12275;48.550;12.132;2023-07-20T06:01:44;1568.30;;;999.90;;
24096;SDS011;12275;48.550;12.132;2023-07-20T06:04:13;1539.35;;;999.90;;
24096;SDS011;12275;48.550;12.132;2023-07-20T06:06:39;1564.40;;;999.90;;
24096;SDS011;12275;48.550;12.132;2023-07-20T06:09:05;1575.05;;;999.90;;
24096;SDS011;12275;48.550;12.132;2023-07-20T06:11:34;1570.25;;;999.90;;
24096;SDS011;12275;48.550;12.132;2023-07-20T06:14:01;1581.78;;;999.90;;
24096;SDS011;12275;48.550;12.132;2023-07-20T06:16:27;1580.65;;;999.90;;
24096;SDS011;12275;48.550;12.132;2023-07-20T06:18:53;1576.25;;;999.90;;
24096;SDS011;12275;48.550;12.132;2023-07-20T06:21:19;1602.40;;;999.90;;
24096;SDS011;12275;48.550;12.132;2023-07-20T06:23:45;1614.40;;;999.90;;
24096;SDS011;12275;48.550;12.132;2023-07-20T06:26:11;1590.65;;;999.90;;
24096;SDS011;12275;48.550;12.132;2023-07-20T06:28:37;1608.75;;;999.90;;
24096;SDS011;12275;48.550;12.132;2023-07-20T06:31:03;1580.07;;;999.90;;
24096;SDS011;12275;48.550;12.132;2023-07-20T06:33:29;1617.78;;;999.90;;
24096;SDS011;12275;48.550;12.132;2023-07-20T06:35:55;1596.60;;;999.90;;
24096;SDS011;12275;48.550;12.132;2023-07-20T06:38:24;1578.53;;;999.90;;
24096;SDS011;12275;48.550;12.132;2023-07-20T06:40:50;1585.30;;;999.90;;
24096;SDS011;12275;48.550;12.132;2023-07-20T06:43:17;1563.20;;;999.90;;
24096;SDS011;12275;48.550;12.132;2023-07-20T06:45:43;1554.05;;;999.90;;
24096;SDS011;12275;48.550;12.132;2023-07-20T06:48:09;1564.07;;;999.90;;
24096;SDS011;12275;48.550;12.132;2023-07-20T06:50:35;1546.80;;;999.90;;
24096;SDS011;12275;48.550;12.132;2023-07-20T06:53:01;1552.10;;;999.90;;
24096;SDS011;12275;48.550;12.132;2023-07-20T06:55:29;1564.00;;;999.90;;
24096;SDS011;12275;48.550;12.132;2023-07-20T06:57:55;1557.17;;;999.90;;
24096;SDS011;12275;48.550;12.132;2023-07-20T07:00:21;1539.72;;;999.90;;
24096;SDS011;12275;48.550;12.132;2023-07-20T07:02:47;1523.65;;;999.90;;
24096;SDS011;12275;48.550;12.132;2023-07-20T07:05:13;1554.55;;;999.90;;
24096;SDS011;12275;48.550;12.132;2023-07-20T07:07:40;1541.18;;;999.90;;
24096;SDS011;12275;48.550;12.132;2023-07-20T07:10:06;1550.38;;;999.90;;
24096;SDS011;12275;48.550;12.132;2023-07-20T07:12:33;1566.57;;;999.90;;
24096;SDS011;12275;48.550;12.132;2023-07-20T07:15:00;1554.78;;;999.90;;
24096;SDS011;12275;48.550;12.132;2023-07-20T07:17:26;1544.25;;;999.90;;
24096;SDS011;12275;48.550;12.132;2023-07-20T07:19:52;1571.65;;;999.90;;
24096;SDS011;12275;48.550;12.132;2023-07-20T07:22:22;1573.32;;;999.90;;
24096;SDS011;12275;48.550;12.132;2023-07-20T07:24:48;1583.93;;;999.90;;
24096;SDS011;12275;48.550;12.132;2023-07-20T07:27:14;1580.68;;;999.90;;
24096;SDS011;12275;48.550;12.132;2023-07-20T07:29:43;1569.10;;;999.90;;
24096;SDS011;12275;48.550;12.132;2023-07-20T07:32:09;1586.80;;;999.90;;
24096;SDS011;12275;48.550;12.132;2023-07-20T07:34:36;1547.72;;;999.90;;
24096;SDS011;12275;48.550;12.132;2023-07-20T07:37:02;1543.10;;;999.90;;
24096;SDS011;12275;48.550;12.132;2023-07-20T07:39:28;1559.05;;;999.90;;
24096;SDS011;12275;48.550;12.132;2023-07-20T07:41:55;1569.93;;;999.90;;
24096;SDS011;12275;48.550;12.132;2023-07-20T07:44:21;1584.35;;;999.90;;
24096;SDS011;12275;48.550;12.132;2023-07-20T07:46:47;1567.43;;;999.90;;
24096;SDS011;12275;48.550;12.132;2023-07-20T07:49:13;1557.18;;;999.90;;
24096;SDS011;12275;48.550;12.132;2023-07-20T07:51:39;1537.10;;;999.90;;
24096;SDS011;12275;48.550;12.132;2023-07-20T07:54:05;1547.53;;;999.90;;
24096;SDS011;12275;48.550;12.132;2023-07-20T07:56:31;1519.07;;;999.90;;
24096;SDS011;12275;48.550;12.132;2023-07-20T07:58:57;1525.38;;;999.90;;
24096;SDS011;12275;48.550;12.132;2023-07-20T08:01:23;1534.30;;;999.90;;
24096;SDS011;12275;48.550;12.132;2023-07-20T08:03:50;1516.25;;;999.90;;
24096;SDS011;12275;48.550;12.132;2023-07-20T08:06:16;1510.82;;;999.90;;
24096;SDS011;12275;48.550;12.132;2023-07-20T08:08:42;1499.93;;;999.90;;
24096;SDS011;12275;48.550;12.132;2023-07-20T08:11:08;1543.55;;;999.90;;
24096;SDS011;12275;48.550;12.132;2023-07-20T08:13:35;1537.20;;;999.90;;
24096;SDS011;12275;48.550;12.132;2023-07-20T08:16:01;1533.50;;;999.90;;
24096;SDS011;12275;48.550;12.132;2023-07-20T08:18:27;1524.00;;;999.90;;
24096;SDS011;12275;48.550;12.132;2023-07-20T08:20:53;1509.03;;;999.90;;
24096;SDS011;12275;48.550;12.132;2023-07-20T08:23:19;1507.32;;;999.90;;
24096;SDS011;12275;48.550;12.132;2023-07-20T08:25:46;1503.95;;;999.90;;
24096;SDS011;12275;48.550;12.132;2023-07-20T08:28:13;1505.90;;;999.90;;
24096;SDS011;12275;48.550;12.132;2023-07-20T08:30:46;1532.60;;;999.90;;
24096;SDS011;12275;48.550;12.132;2023-07-20T08:33:17;1536.88;;;999.90;;
24096;SDS011;12275;48.550;12.132;2023-07-20T08:35:44;1539.93;;;999.90;;
24096;SDS011;12275;48.550;12.132;2023-07-20T08:38:11;1545.95;;;999.90;;
24096;SDS011;12275;48.550;12.132;2023-07-20T08:40:41;1555.22;;;999.90;;
24096;SDS011;12275;48.550;12.132;2023-07-20T08:43:07;1555.78;;;999.90;;
24096;SDS011;12275;48.550;12.132;2023-07-20T08:45:34;1535.55;;;999.90;;
24096;SDS011;12275;48.550;12.132;2023-07-20T08:48:00;1545.07;;;999.90;;
24096;SDS011;12275;48.550;12.132;2023-07-20T08:50:30;1520.77;;;999.90;;
24096;SDS011;12275;48.550;12.132;2023-07-20T08:52:56;1541.13;;;999.90;;
24096;SDS011;12275;48.550;12.132;2023-07-20T08:55:23;1540.93;;;999.90;;
24096;SDS011;12275;48.550;12.132;2023-07-20T08:57:50;1577.20;;;999.90;;
24096;SDS011;12275;48.550;12.132;2023-07-20T09:00:16;1565.45;;;999.90;;
24096;SDS011;12275;48.550;12.132;2023-07-20T09:02:42;1571.55;;;999.90;;
24096;SDS011;12275;48.550;12.132;2023-07-20T09:05:10;1567.07;;;999.90;;
24096;SDS011;12275;48.550;12.132;2023-07-20T09:07:39;1557.40;;;999.90;;
24096;SDS011;12275;48.550;12.132;2023-07-20T09:10:05;1593.10;;;999.90;;
24096;SDS011;12275;48.550;12.132;2023-07-20T09:12:34;1569.85;;;999.90;;
24096;SDS011;12275;48.550;12.132;2023-07-20T09:15:00;1584.43;;;999.90;;
24096;SDS011;12275;48.550;12.132;2023-07-20T09:17:26;1564.85;;;999.90;;
24096;SDS011;12275;48.550;12.132;2023-07-20T09:19:52;1566.22;;;999.90;;
24096;SDS011;12275;48.550;12.132;2023-07-20T09:22:18;1585.45;;;999.90;;
24096;SDS011;12275;48.550;12.132;2023-07-20T09:24:44;1602.67;;;999.90;;
24096;SDS011;12275;48.550;12.132;2023-07-20T09:27:10;1556.88;;;999.90;;
24096;SDS011;12275;48.550;12.132;2023-07-20T09:29:47;1576.35;;;999.90;;
24096;SDS011;12275;48.550;12.132;2023-07-20T09:32:13;1550.30;;;999.90;;
24096;SDS011;12275;48.550;12.132;2023-07-20T09:34:43;1585.20;;;999.90;;
24096;SDS011;12275;48.550;12.132;2023-07-20T09:37:09;1612.43;;;999.90;;
24096;SDS011;12275;48.550;12.132;2023-07-20T09:39:45;1594.40;;;999.90;;
24096;SDS011;12275;48.550;12.132;2023-07-20T09:42:11;1583.57;;;999.90;;
24096;SDS011;12275;48.550;12.132;2023-07-20T09:44:38;1546.38;;;999.90;;
24096;SDS011;12275;48.550;12.132;2023-07-20T09:47:05;1588.13;;;999.90;;
24096;SDS011;12275;48.550;12.132;2023-07-20T09:49:31;1594.85;;;999.90;;
24096;SDS011;12275;48.550;12.132;2023-07-20T09:52:00;1550.17;;;999.90;;
24096;SDS011;12275;48.550;12.132;2023-07-20T09:54:27;1557.97;;;999.90;;
24096;SDS011;12275;48.550;12.132;2023-07-20T09:56:54;1556.13;;;999.90;;
24096;SDS011;12275;48.550;12.132;2023-07-20T09:59:21;1579.20;;;999.90;;
24096;SDS011;12275;48.550;12.132;2023-07-20T10:01:47;1558.43;;;999.90;;
24096;SDS011;12275;48.550;12.132;2023-07-20T10:04:14;1569.13;;;999.90;;
24096;SDS011;12275;48.550;12.132;2023-07-20T10:06:42;1586.32;;;999.90;;
24096;SDS011;12275;48.550;12.132;2023-07-20T10:09:09;1577.15;;;999.90;;
24096;SDS011;12275;48.550;12.132;2023-07-20T10:11:36;1582.50;;;999.90;;
24096;SDS011;12275;48.550;12.132;2023-07-20T10:14:03;1610.30;;;999.90;;
24096;SDS011;12275;48.550;12.132;2023-07-20T10:16:37;1585.07;;;999.90;;
24096;SDS011;12275;48.550;12.132;2023-07-20T10:19:23;1590.85;;;999.90;;
24096;SDS011;12275;48.550;12.132;2023-07-20T10:21:51;1552.00;;;999.90;;
24096;SDS011;12275;48.550;12.132;2023-07-20T10:24:19;1594.78;;;999.90;;
24096;SDS011;12275;48.550;12.132;2023-07-20T10:26:45;1568.20;;;999.90;;
24096;SDS011;12275;48.550;12.132;2023-07-20T10:29:11;1609.35;;;999.90;;
24096;SDS011;12275;48.550;12.132;2023-07-20T10:31:38;1584.70;;;999.90;;
24096;SDS011;12275;48.550;12.132;2023-07-20T10:34:04;1583.68;;;999.90;;
24096;SDS011;12275;48.550;12.132;2023-07-20T10:36:30;1604.28;;;999.90;;
24096;SDS011;12275;48.550;12.132;2023-07-20T10:38:56;1598.10;;;999.90;;
24096;SDS011;12275;48.550;12.132;2023-07-20T10:41:31;1598.85;;;999.90;;
24096;SDS011;12275;48.550;12.132;2023-07-20T10:44:02;1581.93;;;999.90;;
24096;SDS011;12275;48.550;12.132;2023-07-20T10:49:05;1577.32;;;999.90;;
24096;SDS011;12275;48.550;12.132;2023-07-20T10:51:50;1561.50;;;999.90;;
24096;SDS011;12275;48.550;12.132;2023-07-20T10:56:49;1566.47;;;999.90;;
24096;SDS011;12275;48.550;12.132;2023-07-20T10:59:19;1560.70;;;999.90;;
24096;SDS011;12275;48.550;12.132;2023-07-20T11:01:46;1557.95;;;999.90;;
24096;SDS011;12275;48.550;12.132;2023-07-20T11:04:14;1534.20;;;999.90;;
24096;SDS011;12275;48.550;12.132;2023-07-20T11:06:43;1548.78;;;999.90;;
24096;SDS011;12275;48.550;12.132;2023-07-20T11:09:10;1560.13;;;999.90;;
24096;SDS011;12275;48.550;12.132;2023-07-20T11:11:37;1568.03;;;999.90;;
24096;SDS011;12275;48.550;12.132;2023-07-20T11:14:04;1531.33;;;999.90;;
24096;SDS011;12275;48.550;12.132;2023-07-20T11:19:00;1563.25;;;999.90;;
24096;SDS011;12275;48.550;12.132;2023-07-20T11:21:26;1557.35;;;999.90;;
24096;SDS011;12275;48.550;12.132;2023-07-20T11:23:55;1581.50;;;999.90;;
24096;SDS011;12275;48.550;12.132;2023-07-20T11:26:21;1569.60;;;999.90;;
24096;SDS011;12275;48.550;12.132;2023-07-20T11:28:50;1562.20;;;999.90;;
24096;SDS011;12275;48.550;12.132;2023-07-20T11:31:17;1558.80;;;999.90;;
24096;SDS011;12275;48.550;12.132;2023-07-20T11:33:43;1547.72;;;999.90;;
24096;SDS011;12275;48.550;12.132;2023-07-20T11:36:10;1540.13;;;999.90;;
24096;SDS011;12275;48.550;12.132;2023-07-20T11:38:36;1513.97;;;999.90;;
24096;SDS011;12275;48.550;12.132;2023-07-20T11:41:02;1543.70;;;999.90;;
24096;SDS011;12275;48.550;12.132;2023-07-20T11:43:29;1533.28;;;999.90;;
24096;SDS011;12275;48.550;12.132;2023-07-20T11:45:55;1537.45;;;999.90;;
24096;SDS011;12275;48.550;12.132;2023-07-20T11:48:21;1526.93;;;999.90;;
24096;SDS011;12275;48.550;12.132;2023-07-20T11:50:47;1513.10;;;999.90;;
24096;SDS011;12275;48.550;12.132;2023-07-20T11:53:14;1509.30;;;999.90;;
24096;SDS011;12275;48.550;12.132;2023-07-20T11:55:40;1497.85;;;999.90;;
24096;SDS011;12275;48.550;12.132;2023-07-20T11:58:07;1487.07;;;999.90;;
24096;SDS011;12275;48.550;12.132;2023-07-20T12:00:33;1488.53;;;999.90;;
24096;SDS011;12275;48.550;12.132;2023-07-20T12:03:00;1509.82;;;999.90;;
24096;SDS011;12275;48.550;12.132;2023-07-20T12:05:26;1549.38;;;999.90;;
24096;SDS011;12275;48.550;12.132;2023-07-20T12:07:52;1556.80;;;999.90;;
24096;SDS011;12275;48.550;12.132;2023-07-20T12:10:25;1562.95;;;999.90;;
24096;SDS011;12275;48.550;12.132;2023-07-20T12:12:51;1533.03;;;999.90;;
24096;SDS011;12275;48.550;12.132;2023-07-20T12:15:20;1531.28;;;999.90;;
24096;SDS011;12275;48.550;12.132;2023-07-20T12:17:46;1534.45;;;999.90;;
24096;SDS011;12275;48.550;12.132;2023-07-20T12:20:12;1511.73;;;999.90;;
24096;SDS011;12275;48.550;12.132;2023-07-20T12:22:39;1467.93;;;999.90;;
24096;SDS011;12275;48.550;12.132;2023-07-20T12:25:06;1491.18;;;999.90;;
24096;SDS011;12275;48.550;12.132;2023-07-20T12:27:38;1492.05;;;999.90;;
24096;SDS011;12275;48.550;12.132;2023-07-20T12:30:05;1480.97;;;999.90;;
24096;SDS011;12275;48.550;12.132;2023-07-20T12:32:32;1501.10;;;999.90;;
24096;SDS011;12275;48.550;12.132;2023-07-20T12:34:59;1527.90;;;999.90;;
24096;SDS011;12275;48.550;12.132;2023-07-20T12:37:25;1511.88;;;999.90;;
24096;SDS011;12275;48.550;12.132;2023-07-20T12:39:52;1516.07;;;999.90;;
24096;SDS011;12275;48.550;12.132;2023-07-20T12:42:18;1508.82;;;999.90;;
24096;SDS011;12275;48.550;12.132;2023-07-20T12:44:44;1538.68;;;999.90;;
24096;SDS011;12275;48.550;12.132;2023-07-20T12:47:10;1553.05;;;999.90;;
24096;SDS011;12275;48.550;12.132;2023-07-20T12:49:36;1562.05;;;999.90;;
24096;SDS011;12275;48.550;12.132;2023-07-20T12:52:02;1554.57;;;999.90;;
24096;SDS011;12275;48.550;12.132;2023-07-20T12:54:28;1566.80;;;999.90;;
24096;SDS011;12275;48.550;12.132;2023-07-20T12:56:54;1546.97;;;999.90;;
24096;SDS011;12275;48.550;12.132;2023-07-20T12:59:20;1543.20;;;999.90;;
24096;SDS011;12275;48.550;12.132;2023-07-20T13:01:46;1558.18;;;999.90;;
24096;SDS011;12275;48.550;12.132;2023-07-20T13:04:12;1579.17;;;999.90;;
24096;SDS011;12275;48.550;12.132;2023-07-20T13:06:38;1528.53;;;999.90;;
24096;SDS011;12275;48.550;12.132;2023-07-20T13:09:06;1566.05;;;999.90;;
24096;SDS011;12275;48.550;12.132;2023-07-20T13:11:33;1571.82;;;999.90;;
24096;SDS011;12275;48.550;12.132;2023-07-20T13:13:59;1544.20;;;999.90;;
24096;SDS011;12275;48.550;12.132;2023-07-20T13:16:25;1565.17;;;999.90;;
24096;SDS011;12275;48.550;12.132;2023-07-20T13:18:51;1601.93;;;999.90;;
24096;SDS011;12275;48.550;12.132;2023-07-20T13:21:18;1589.53;;;999.90;;
24096;SDS011;12275;48.550;12.132;2023-07-20T13:23:47;1600.90;;;999.90;;
24096;SDS011;12275;48.550;12.132;2023-07-20T13:26:13;1592.63;;;999.90;;
24096;SDS011;12275;48.550;12.132;2023-07-20T13:28:40;1587.30;;;999.90;;
24096;SDS011;12275;48.550;12.132;2023-07-20T13:31:06;1598.07;;;999.90;;
24096;SDS011;12275;48.550;12.132;2023-07-20T13:33:33;1583.63;;;999.90;;
24096;SDS011;12275;48.550;12.132;2023-07-20T13:36:00;1583.60;;;999.90;;
24096;SDS011;12275;48.550;12.132;2023-07-20T13:38:26;1601.85;;;999.90;;
24096;SDS011;12275;48.550;12.132;2023-07-20T13:40:52;1577.78;;;999.90;;
24096;SDS011;12275;48.550;12.132;2023-07-20T13:43:18;1553.57;;;999.90;;
24096;SDS011;12275;48.550;12.132;2023-07-20T13:45:44;1580.65;;;999.90;;
24096;SDS011;12275;48.550;12.132;2023-07-20T13:48:10;1535.18;;;999.90;;